Time;durP1;ratioP1;P1;durP2;ratioP2;P2;SDS_P1;SDS_P2;PMS_P1;PMS_P2;Temp;Humidity;BMP_temperature;BMP_pressure;BME280_temperature;BME280_humidity;BME280_pressure;Samples;Min_cycle;Max_cycle;Signal;HPM_P1;HPM_P2
2021/09/03 00:00:56;;;;;;;11.57;10.38;;;;;;;16.75;83.13;99787.72;5116693;28;20245;-74
2021/09/03 00:03:23;;;;;;;13.77;11.13;;;;;;;16.83;82.31;99782.56;5116138;28;20229;-74
2021/09/03 00:05:50;;;;;;;12.07;10.73;;;;;;;16.85;82.18;99784.16;5116123;28;20183;-73
2021/09/03 00:08:16;;;;;;;12.38;10.40;;;;;;;16.85;82.37;99781.44;5116503;28;20181;-73
2021/09/03 00:10:43;;;;;;;12.35;10.48;;;;;;;16.77;82.57;99777.59;5116022;28;20200;-73
2021/09/03 00:13:10;;;;;;;11.52;10.27;;;;;;;16.83;82.46;99777.13;5116183;28;20254;-73
2021/09/03 00:15:37;;;;;;;11.82;9.95;;;;;;;16.62;83.72;99763.38;5116165;28;20230;-73
2021/09/03 00:18:05;;;;;;;11.85;10.65;;;;;;;16.81;82.77;99773.66;5115956;28;20621;-73
2021/09/03 00:20:32;;;;;;;12.57;10.05;;;;;;;16.77;82.56;99772.16;5115954;28;20194;-74
2021/09/03 00:22:58;;;;;;;13.93;11.20;;;;;;;16.79;82.72;99772.91;5115780;28;20206;-74
2021/09/03 00:25:25;;;;;;;12.10;10.90;;;;;;;16.55;83.83;99773.91;5116183;28;20192;-74
2021/09/03 00:27:52;;;;;;;11.73;10.52;;;;;;;16.43;84.93;99774.84;5115632;28;20290;-74
2021/09/03 00:30:18;;;;;;;13.32;11.35;;;;;;;16.54;84.35;99765.84;5116108;28;20541;-74
2021/09/03 00:32:45;;;;;;;15.60;10.68;;;;;;;16.58;84.32;99772.78;5116014;28;20652;-74
2021/09/03 00:35:13;;;;;;;11.45;10.25;;;;;;;16.41;85.01;99761.38;5115928;28;20290;-73
2021/09/03 00:37:40;;;;;;;11.15;9.88;;;;;;;16.51;84.65;99756.09;5115960;28;20262;-73
2021/09/03 00:40:08;;;;;;;11.88;9.45;;;;;;;16.40;84.90;99765.09;5115588;28;20286;-73
2021/09/03 00:42:35;;;;;;;14.10;10.93;;;;;;;16.63;83.79;99760.53;5115475;28;20226;-73
2021/09/03 00:45:02;;;;;;;12.75;10.57;;;;;;;16.59;83.87;99763.63;5115848;28;20541;-73
2021/09/03 00:47:28;;;;;;;11.20;10.00;;;;;;;16.60;83.52;99762.66;5115357;28;20183;-73
2021/09/03 00:49:55;;;;;;;11.55;10.13;;;;;;;16.40;84.97;99756.09;5115724;28;20294;-73
2021/09/03 00:52:23;;;;;;;11.63;9.80;;;;;;;16.31;85.93;99749.53;5115419;28;20203;-73
2021/09/03 00:54:51;;;;;;;14.10;11.18;;;;;;;16.19;86.70;99750.50;5115628;28;20282;-73
2021/09/03 00:57:18;;;;;;;11.38;10.27;;;;;;;16.20;86.64;99747.66;5115577;28;20647;-74
2021/09/03 00:59:45;;;;;;;12.80;10.82;;;;;;;16.09;87.52;99739.50;5115016;28;20191;-73
2021/09/03 01:02:12;;;;;;;14.35;10.82;;;;;;;16.08;88.00;99747.75;5114821;28;20227;-73
2021/09/03 01:04:38;;;;;;;11.65;10.23;;;;;;;16.03;88.14;99749.00;5114107;28;20187;-74
2021/09/03 01:07:05;;;;;;;12.93;11.13;;;;;;;16.04;88.15;99744.44;5114838;28;20260;-73
2021/09/03 01:09:33;;;;;;;12.20;10.90;;;;;;;15.89;89.12;99745.63;5115007;28;20184;-74
2021/09/03 01:12:00;;;;;;;13.48;10.60;;;;;;;15.89;89.44;99749.19;5115274;28;20207;-73
2021/09/03 01:14:26;;;;;;;15.65;12.27;;;;;;;16.00;88.67;99751.09;5114909;28;20190;-73
2021/09/03 01:16:53;;;;;;;13.65;10.48;;;;;;;16.05;88.19;99743.44;5115150;28;20692;-73
2021/09/03 01:19:19;;;;;;;12.68;10.55;;;;;;;16.29;86.80;99743.34;5115182;28;20639;-73
2021/09/03 01:21:49;;;;;;;16.58;10.52;;;;;;;16.31;85.80;99746.81;5114618;28;20180;-73
2021/09/03 01:24:16;;;;;;;11.32;9.93;;;;;;;16.30;85.90;99747.78;5114851;28;20192;-73
2021/09/03 01:26:43;;;;;;;14.32;10.98;;;;;;;16.31;85.86;99749.53;5114944;28;20180;-74
2021/09/03 01:29:09;;;;;;;12.50;10.32;;;;;;;16.29;85.74;99746.06;5114463;28;20187;-74
2021/09/03 01:31:36;;;;;;;13.35;11.02;;;;;;;16.37;85.15;99745.44;5114392;28;20194;-74
2021/09/03 01:34:03;;;;;;;12.43;11.15;;;;;;;16.33;85.03;99746.72;5114597;28;20677;-74
2021/09/03 01:36:30;;;;;;;13.05;11.23;;;;;;;16.32;85.33;99740.38;5114433;28;20274;-73
2021/09/03 01:38:59;;;;;;;14.38;10.65;;;;;;;16.31;84.96;99738.66;5114871;28;20290;-74
2021/09/03 01:41:26;;;;;;;14.85;11.30;;;;;;;16.26;85.42;99736.31;5114460;28;20190;-74
2021/09/03 01:43:53;;;;;;;11.85;10.55;;;;;;;16.05;86.66;99738.00;5114698;28;20270;-74
2021/09/03 01:46:21;;;;;;;12.80;11.35;;;;;;;16.09;86.93;99736.78;5114898;28;20610;-74
2021/09/03 01:48:48;;;;;;;15.00;12.75;;;;;;;15.94;87.96;99735.25;5114220;28;20183;-73
2021/09/03 01:51:15;;;;;;;13.95;12.50;;;;;;;15.75;89.49;99735.84;5114676;28;20183;-73
2021/09/03 01:53:41;;;;;;;14.10;11.13;;;;;;;15.57;91.05;99735.38;5114567;28;20772;-73
2021/09/03 01:56:09;;;;;;;14.50;12.88;;;;;;;15.47;92.02;99729.81;5114503;28;20270;-73
2021/09/03 01:58:36;;;;;;;13.60;12.18;;;;;;;15.39;93.38;99740.34;5114537;28;20636;-74
2021/09/03 02:01:03;;;;;;;16.60;11.68;;;;;;;15.53;92.11;99734.72;5113603;28;20290;-74
2021/09/03 02:03:29;;;;;;;12.73;11.38;;;;;;;15.53;92.05;99740.16;5114119;28;20605;-73
2021/09/03 02:05:58;;;;;;;14.35;12.18;;;;;;;15.64;91.33;99733.91;5114460;28;20705;-74
2021/09/03 02:08:24;;;;;;;12.82;11.45;;;;;;;15.68;90.51;99729.13;5114024;28;20199;-73
2021/09/03 02:10:51;;;;;;;13.52;10.88;;;;;;;15.75;90.08;99736.69;5113916;28;20278;-72
2021/09/03 02:13:19;;;;;;;17.67;13.27;;;;;;;15.59;90.87;99736.13;5114310;28;20675;-73
2021/09/03 02:15:46;;;;;;;16.25;11.57;;;;;;;15.48;92.00;99734.22;5113458;28;20199;-74
2021/09/03 02:18:12;;;;;;;15.73;12.15;;;;;;;15.42;92.36;99735.59;5113609;28;20193;-73
2021/09/03 02:20:39;;;;;;;13.13;11.43;;;;;;;15.54;91.76;99725.63;5113700;28;20302;-74
2021/09/03 02:23:06;;;;;;;14.15;11.32;;;;;;;15.56;91.34;99731.81;5113983;28;20199;-73
2021/09/03 02:25:33;;;;;;;13.80;11.38;;;;;;;15.48;91.42;99730.66;5113758;28;20190;-74
2021/09/03 02:28:00;;;;;;;14.55;11.60;;;;;;;15.35;92.46;99736.16;5113939;28;20190;-74
2021/09/03 02:30:28;;;;;;;15.27;12.05;;;;;;;15.19;93.67;99725.59;5113332;28;20202;-74
2021/09/03 02:32:54;;;;;;;14.98;11.27;;;;;;;15.27;93.09;99738.59;5113839;28;20202;-74
2021/09/03 02:35:21;;;;;;;13.75;11.07;;;;;;;15.22;93.15;99726.22;5113729;28;20203;-73
2021/09/03 02:37:48;;;;;;;14.07;11.20;;;;;;;15.14;93.92;99739.50;5113697;28;20190;-73
2021/09/03 02:40:14;;;;;;;13.63;10.85;;;;;;;15.19;94.01;99734.59;5113463;28;20278;-73
2021/09/03 02:42:41;;;;;;;16.67;11.82;;;;;;;15.29;92.79;99731.22;5113758;28;20645;-74
2021/09/03 02:45:09;;;;;;;12.80;10.85;;;;;;;15.52;90.91;99727.59;5113454;28;20271;-73
2021/09/03 02:47:37;;;;;;;15.95;12.65;;;;;;;15.60;89.51;99730.59;5113013;28;20187;-74
2021/09/03 02:50:04;;;;;;;14.13;11.73;;;;;;;15.51;89.76;99723.16;5113456;28;20204;-73
2021/09/03 02:52:31;;;;;;;16.25;12.15;;;;;;;15.38;90.98;99727.78;5113456;28;20186;-74
2021/09/03 02:54:57;;;;;;;16.73;12.60;;;;;;;15.30;92.22;99732.91;5113695;28;20486;-73
2021/09/03 02:57:24;;;;;;;14.50;11.77;;;;;;;15.36;91.27;99732.47;5113340;28;20199;-73
2021/09/03 02:59:52;;;;;;;13.55;11.27;;;;;;;15.40;90.94;99731.25;5113627;28;20180;-73
2021/09/03 03:02:18;;;;;;;13.38;12.07;;;;;;;15.43;90.76;99731.00;5113202;28;20322;-73
2021/09/03 03:04:46;;;;;;;12.57;11.27;;;;;;;15.42;90.79;99727.44;5113374;28;20270;-73
2021/09/03 03:07:13;;;;;;;16.48;10.93;;;;;;;15.40;90.80;99717.69;5113097;28;20282;-73
2021/09/03 03:09:39;;;;;;;14.93;11.60;;;;;;;15.33;91.23;99716.41;5113758;28;20546;-73
2021/09/03 03:12:07;;;;;;;21.05;13.45;;;;;;;15.17;92.65;99723.00;5113292;28;20601;-73
2021/09/03 03:14:33;;;;;;;12.98;11.50;;;;;;;15.15;92.51;99716.84;5112814;28;20254;-73
2021/09/03 03:17:01;;;;;;;15.20;12.13;;;;;;;15.17;92.83;99717.59;5113131;28;20245;-74
2021/09/03 03:19:29;;;;;;;13.60;11.48;;;;;;;15.09;93.26;99717.28;5113567;28;20190;-74
2021/09/03 03:21:58;;;;;;;14.25;11.50;;;;;;;15.02;93.17;99710.59;5113122;28;20270;-73
2021/09/03 03:24:25;;;;;;;17.40;12.13;;;;;;;14.86;94.80;99702.75;5112945;28;20204;-73
2021/09/03 03:26:51;;;;;;;14.65;12.98;;;;;;;14.88;94.63;99706.22;5113004;28;20248;-73
2021/09/03 03:29:18;;;;;;;14.02;12.43;;;;;;;14.86;94.89;99707.31;5115860;28;20189;-72
2021/09/03 03:31:45;;;;;;;15.90;12.32;;;;;;;14.86;94.98;99700.03;5116917;28;20195;-74
2021/09/03 03:34:11;;;;;;;14.80;12.88;;;;;;;14.79;95.42;99702.34;5116728;28;20267;-73
2021/09/03 03:36:38;;;;;;;13.77;12.10;;;;;;;14.82;95.20;99703.09;5117075;28;20594;-73
2021/09/03 03:39:07;;;;;;;14.32;12.82;;;;;;;14.74;96.10;99704.53;5117130;28;20202;-73
2021/09/03 03:41:33;;;;;;;14.85;11.82;;;;;;;14.90;95.33;99703.34;5117132;28;20184;-73
2021/09/03 03:44:00;;;;;;;14.48;12.45;;;;;;;14.85;94.50;99694.72;5117062;28;20664;-73
2021/09/03 03:46:27;;;;;;;15.52;11.90;;;;;;;14.75;95.29;99698.09;5116328;28;20281;-73
2021/09/03 03:48:53;;;;;;;14.70;11.45;;;;;;;14.96;93.99;99694.78;5117076;28;20259;-73
2021/09/03 03:51:21;;;;;;;14.52;12.10;;;;;;;14.79;94.18;99691.50;5116585;28;20199;-73
2021/09/03 03:53:47;;;;;;;13.10;11.70;;;;;;;14.72;95.00;99687.50;5116975;28;20203;-73
2021/09/03 03:56:15;;;;;;;16.52;12.52;;;;;;;14.78;94.79;99680.75;5116802;28;20614;-74
2021/09/03 03:58:43;;;;;;;14.35;12.85;;;;;;;14.85;93.86;99678.44;5116009;28;20206;-73
2021/09/03 04:01:10;;;;;;;16.08;12.00;;;;;;;14.72;94.63;99676.66;5116464;28;20207;-74
2021/09/03 04:03:37;;;;;;;14.82;11.55;;;;;;;14.74;94.44;99680.13;5116100;28;20193;-73
2021/09/03 04:06:03;;;;;;;14.88;11.82;;;;;;;14.87;93.39;99676.50;5114394;28;20653;-73
2021/09/03 04:08:30;;;;;;;14.60;12.23;;;;;;;14.92;92.89;99686.00;5116040;28;20199;-73
2021/09/03 04:10:57;;;;;;;15.48;12.20;;;;;;;14.97;92.04;99675.69;5116415;28;20187;-73
2021/09/03 04:13:25;;;;;;;32.63;20.67;;;;;;;14.99;91.64;99667.41;5116123;28;20207;-74
2021/09/03 04:15:51;;;;;;;15.73;11.45;;;;;;;14.95;91.92;99668.66;5101907;28;20223;-72
2021/09/03 04:18:18;;;;;;;17.00;12.75;;;;;;;14.90;92.12;99674.44;5095765;28;20275;-73
2021/09/03 04:20:45;;;;;;;13.68;12.05;;;;;;;14.96;92.04;99675.81;5096082;28;20275;-73
2021/09/03 04:23:12;;;;;;;14.80;11.32;;;;;;;14.92;91.74;99675.16;5112065;28;20187;-73
2021/09/03 04:25:38;;;;;;;14.15;11.15;;;;;;;15.00;91.60;99689.00;5116208;28;20186;-74
2021/09/03 04:28:05;;;;;;;15.15;10.50;;;;;;;15.07;90.27;99689.41;5115902;28;20187;-74
2021/09/03 04:30:33;;;;;;;12.75;11.45;;;;;;;15.15;89.44;99686.13;5103642;28;20635;-73
2021/09/03 04:33:00;;;;;;;12.77;10.25;;;;;;;15.25;88.20;99683.59;5112720;28;20677;-72
2021/09/03 04:35:27;;;;;;;12.55;10.75;;;;;;;15.09;89.08;99686.59;5115688;28;20187;-73
2021/09/03 04:37:54;;;;;;;15.10;12.60;;;;;;;14.97;90.02;99694.69;5115722;28;20202;-74
2021/09/03 04:40:21;;;;;;;13.65;11.77;;;;;;;14.83;91.24;99692.09;5115852;28;20198;-73
2021/09/03 04:42:48;;;;;;;12.57;10.30;;;;;;;14.80;91.63;99689.63;5115539;28;20281;-74
2021/09/03 04:45:16;;;;;;;15.90;11.55;;;;;;;14.83;91.79;99705.66;5115292;28;20199;-74
2021/09/03 04:47:44;;;;;;;14.60;12.15;;;;;;;14.86;91.66;99699.19;5115708;28;20664;-74
2021/09/03 04:50:13;;;;;;;15.00;10.70;;;;;;;14.91;90.76;99696.97;5115368;28;20196;-74
2021/09/03 04:52:40;;;;;;;15.88;10.82;;;;;;;14.87;90.48;99696.31;5115559;28;20294;-74
2021/09/03 04:55:08;;;;;;;12.30;10.45;;;;;;;14.89;90.51;99693.50;5115425;28;20679;-72
2021/09/03 04:57:39;;;;;;;14.48;11.23;;;;;;;14.94;90.59;99702.16;5115539;28;20205;-73
2021/09/03 05:00:07;;;;;;;16.20;11.90;;;;;;;15.00;89.65;99699.00;5115150;28;20271;-72
2021/09/03 05:02:33;;;;;;;16.23;11.82;;;;;;;14.93;90.34;99708.56;5115099;28;20580;-73
2021/09/03 05:05:02;;;;;;;15.52;12.75;;;;;;;15.00;90.12;99701.72;5115194;28;20269;-72
2021/09/03 05:07:28;;;;;;;17.50;11.55;;;;;;;15.00;89.83;99696.28;5115114;28;20294;-73
2021/09/03 05:09:55;;;;;;;15.90;12.07;;;;;;;15.00;89.95;99696.28;5114566;28;20266;-73
2021/09/03 05:12:21;;;;;;;24.08;11.73;;;;;;;15.02;89.71;99697.03;5115071;28;20318;-72
2021/09/03 05:14:48;;;;;;;16.75;11.55;;;;;;;14.93;90.07;99697.72;5115083;28;20289;-72
2021/09/03 05:17:15;;;;;;;19.50;13.07;;;;;;;15.10;89.86;99696.44;5114763;28;20536;-72
2021/09/03 05:19:41;;;;;;;15.43;12.23;;;;;;;15.12;89.04;99692.63;5113634;28;20235;-73
2021/09/03 05:22:09;;;;;;;17.05;11.80;;;;;;;15.04;88.98;99695.09;5113785;28;20234;-74
2021/09/03 05:24:36;;;;;;;14.30;11.20;;;;;;;15.02;88.80;99695.19;5114128;28;20270;-73
2021/09/03 05:27:02;;;;;;;16.70;10.70;;;;;;;14.96;89.48;99705.63;5113460;28;20286;-74
2021/09/03 05:29:29;;;;;;;16.40;12.25;;;;;;;15.08;88.87;99706.53;5114061;28;20282;-73
2021/09/03 05:31:56;;;;;;;14.75;11.77;;;;;;;15.05;88.96;99699.50;5114122;28;20183;-73
2021/09/03 05:34:22;;;;;;;13.50;11.95;;;;;;;15.16;88.31;99709.56;5114273;28;20286;-73
2021/09/03 05:36:49;;;;;;;13.98;11.00;;;;;;;15.18;87.89;99711.16;5113855;28;20290;-73
2021/09/03 05:39:17;;;;;;;15.35;12.07;;;;;;;15.16;88.08;99715.84;5113909;28;20187;-74
2021/09/03 05:41:44;;;;;;;15.43;12.00;;;;;;;14.96;89.21;99708.34;5114075;28;20203;-72
2021/09/03 05:44:10;;;;;;;13.70;11.63;;;;;;;14.94;89.76;99713.84;5114311;28;20244;-74
2021/09/03 05:46:37;;;;;;;14.57;12.13;;;;;;;14.89;90.21;99712.47;5113483;28;20213;-73
2021/09/03 05:49:04;;;;;;;14.90;12.07;;;;;;;14.80;91.33;99706.75;5113205;28;20191;-72
2021/09/03 05:51:30;;;;;;;17.63;12.63;;;;;;;14.94;90.42;99713.00;5113094;28;20542;-75
2021/09/03 05:53:57;;;;;;;18.88;12.93;;;;;;;15.01;90.14;99708.84;5113367;28;20203;-74
2021/09/03 05:56:25;;;;;;;19.58;12.57;;;;;;;15.10;88.76;99716.28;5113171;28;20381;-73
2021/09/03 05:58:52;;;;;;;14.38;12.85;;;;;;;15.04;89.12;99711.34;5113615;28;20270;-73
2021/09/03 06:01:18;;;;;;;20.42;13.38;;;;;;;15.16;88.81;99714.97;5112690;28;20213;-74
2021/09/03 06:03:45;;;;;;;16.60;12.63;;;;;;;15.16;88.59;99718.56;5113462;28;20557;-74
2021/09/03 06:06:11;;;;;;;23.25;13.93;;;;;;;15.26;88.03;99717.84;5113497;28;20214;-73
2021/09/03 06:08:38;;;;;;;16.60;12.88;;;;;;;15.10;88.64;99712.72;5113359;28;20198;-72
2021/09/03 06:11:04;;;;;;;15.93;11.95;;;;;;;15.08;88.44;99717.38;5113793;28;20181;-72
2021/09/03 06:13:33;;;;;;;18.60;12.20;;;;;;;15.22;88.50;99717.25;5113405;28;20194;-72
2021/09/03 06:16:00;;;;;;;16.40;12.20;;;;;;;15.34;87.58;99710.88;5113472;28;20203;-74
2021/09/03 06:18:26;;;;;;;15.48;12.18;;;;;;;15.44;86.59;99716.44;5113911;28;20190;-72
2021/09/03 06:20:53;;;;;;;17.25;12.48;;;;;;;15.45;86.11;99707.34;5113839;28;20608;-74
2021/09/03 06:23:20;;;;;;;17.33;13.85;;;;;;;15.37;86.64;99718.75;5113722;28;20237;-73
2021/09/03 06:25:46;;;;;;;16.90;11.98;;;;;;;15.32;86.73;99711.97;5112840;28;20211;-74
2021/09/03 06:28:13;;;;;;;19.70;12.73;;;;;;;15.46;86.50;99710.91;5113178;28;20199;-73
2021/09/03 06:30:41;;;;;;;20.17;17.13;;;;;;;15.69;86.00;99712.72;5112660;28;20271;-73
2021/09/03 06:33:07;;;;;;;18.33;12.13;;;;;;;16.00;83.58;99713.94;5112536;28;20529;-74
2021/09/03 06:35:34;;;;;;;13.88;11.82;;;;;;;16.39;80.28;99709.03;5111557;28;20302;-74
2021/09/03 06:38:01;;;;;;;17.65;11.75;;;;;;;16.53;78.70;99712.47;5111902;28;20219;-74
2021/09/03 06:40:27;;;;;;;15.57;10.75;;;;;;;16.59;79.26;99711.97;5112236;28;20244;-73
2021/09/03 06:42:54;;;;;;;14.55;11.48;;;;;;;16.28;80.12;99711.75;5112267;28;20235;-73
2021/09/03 06:45:21;;;;;;;16.88;12.40;;;;;;;16.35;80.57;99707.56;5112276;28;20184;-74
2021/09/03 06:47:49;;;;;;;14.10;11.02;;;;;;;16.30;80.68;99714.31;5099853;28;20224;-74
2021/09/03 06:50:16;;;;;;;16.73;11.77;;;;;;;16.39;80.74;99711.75;5092425;28;20206;-73
2021/09/03 06:52:43;;;;;;;16.05;11.77;;;;;;;16.42;80.19;99708.78;5110578;28;20633;-73
2021/09/03 06:55:11;;;;;;;12.77;10.98;;;;;;;16.61;79.08;99704.56;5113201;28;20203;-74
2021/09/03 06:57:39;;;;;;;15.27;10.55;;;;;;;16.56;79.39;99712.25;5112388;28;20294;-74
2021/09/03 07:00:08;;;;;;;17.50;11.48;;;;;;;16.60;78.82;99709.16;5112228;28;20187;-73
2021/09/03 07:02:35;;;;;;;16.92;11.00;;;;;;;16.77;78.09;99702.31;5112134;28;20227;-72
2021/09/03 07:05:03;;;;;;;12.40;10.10;;;;;;;16.80;77.27;99713.00;5116136;28;20274;-73
2021/09/03 07:07:30;;;;;;;14.90;10.40;;;;;;;16.74;77.36;99705.28;5116638;28;20275;-74
2021/09/03 07:09:57;;;;;;;13.27;10.85;;;;;;;16.92;76.83;99708.38;5116726;28;20672;-74
2021/09/03 07:12:24;;;;;;;15.68;12.48;;;;;;;18.12;71.64;99707.22;5116295;28;20179;-74
2021/09/03 07:14:51;;;;;;;14.25;10.50;;;;;;;18.42;69.64;99708.22;5115704;28;20276;-74
2021/09/03 07:17:18;;;;;;;13.38;9.90;;;;;;;17.72;71.81;99715.25;5096856;28;20732;-73
2021/09/03 07:19:45;;;;;;;14.80;9.43;;;;;;;17.86;71.43;99708.63;5112527;28;20217;-73
2021/09/03 07:22:13;;;;;;;13.00;10.15;;;;;;;17.79;71.61;99711.00;5116904;28;20274;-73
2021/09/03 07:24:40;;;;;;;10.73;8.90;;;;;;;17.63;72.24;99711.44;5116687;28;20271;-74
2021/09/03 07:27:07;;;;;;;12.95;10.30;;;;;;;17.68;72.82;99706.50;5117183;28;20524;-74
2021/09/03 07:29:33;;;;;;;13.50;9.15;;;;;;;17.72;71.86;99710.66;5115857;28;20282;-74
2021/09/03 07:32:00;;;;;;;10.85;9.75;;;;;;;17.68;72.49;99701.06;5116705;28;20215;-74
2021/09/03 07:34:26;;;;;;;10.15;9.02;;;;;;;17.85;72.35;99709.66;5115037;28;20208;-73
2021/09/03 07:36:53;;;;;;;11.38;10.25;;;;;;;17.90;71.72;99701.94;5116265;28;20595;-74
2021/09/03 07:39:21;;;;;;;12.18;10.32;;;;;;;18.05;71.33;99702.47;5116412;28;20281;-74
2021/09/03 07:41:49;;;;;;;13.05;10.40;;;;;;;17.94;71.08;99705.25;5116089;28;20634;-73
2021/09/03 07:44:15;;;;;;;11.10;8.98;;;;;;;18.11;70.68;99694.63;5115688;28;20195;-74
2021/09/03 07:46:43;;;;;;;12.57;9.75;;;;;;;18.09;70.39;99691.16;5116279;28;20279;-74
2021/09/03 07:49:10;;;;;;;15.30;9.68;;;;;;;18.42;70.07;99699.19;5116440;28;20193;-73
2021/09/03 07:51:37;;;;;;;10.05;9.02;;;;;;;18.43;69.38;99698.19;5116022;28;20332;-74
2021/09/03 07:54:04;;;;;;;11.10;8.70;;;;;;;18.55;68.54;99697.97;5115775;28;20234;-73
2021/09/03 07:56:32;;;;;;;10.65;9.00;;;;;;;18.75;67.99;99706.22;5115599;28;20186;-73
2021/09/03 07:58:58;;;;;;;12.35;9.52;;;;;;;18.89;67.71;99694.94;5115839;28;20201;-73
2021/09/03 08:01:25;;;;;;;13.35;9.55;;;;;;;18.92;67.53;99702.81;5115482;28;20616;-72
2021/09/03 08:03:52;;;;;;;11.18;9.02;;;;;;;19.02;66.83;99702.88;5115853;28;20571;-74
2021/09/03 08:06:18;;;;;;;13.63;9.90;;;;;;;19.00;67.34;99706.75;5115838;28;20627;-73
2021/09/03 08:08:45;;;;;;;9.05;8.15;;;;;;;19.22;66.48;99701.03;5115950;28;20209;-73
2021/09/03 08:11:11;;;;;;;11.27;9.80;;;;;;;19.37;65.81;99702.31;5115937;28;20614;-72
2021/09/03 08:13:39;;;;;;;10.95;9.60;;;;;;;19.17;65.50;99698.72;5115274;28;20527;-75
2021/09/03 08:16:06;;;;;;;9.93;8.50;;;;;;;19.52;65.31;99693.72;5115318;28;20321;-75
2021/09/03 08:18:33;;;;;;;10.65;9.40;;;;;;;19.64;65.06;99698.00;5115626;28;20199;-74
2021/09/03 08:21:00;;;;;;;10.68;9.45;;;;;;;19.87;64.38;99697.72;5115626;28;20525;-74
2021/09/03 08:23:27;;;;;;;11.17;8.40;;;;;;;20.09;63.64;99688.34;5115870;28;20210;-73
2021/09/03 08:25:54;;;;;;;10.90;8.60;;;;;;;20.36;62.29;99702.06;5115818;28;20512;-75
2021/09/03 08:28:21;;;;;;;10.20;8.70;;;;;;;20.46;61.38;99698.41;5115305;28;20437;-73
2021/09/03 08:30:49;;;;;;;9.80;8.20;;;;;;;20.64;60.92;99706.72;5115570;28;20494;-74
2021/09/03 08:33:15;;;;;;;11.27;8.30;;;;;;;20.77;60.47;99710.81;5115317;28;20433;-74
2021/09/03 08:35:42;;;;;;;12.43;8.57;;;;;;;20.95;59.64;99697.19;5115716;28;20465;-72
2021/09/03 08:38:09;;;;;;;11.10;9.20;;;;;;;20.93;59.79;99693.75;5115735;28;20461;-74
2021/09/03 08:40:37;;;;;;;13.00;8.40;;;;;;;21.15;58.45;99700.66;5115468;28;20431;-73
2021/09/03 08:43:04;;;;;;;8.47;7.53;;;;;;;21.19;57.87;99695.75;5115554;28;20922;-74
2021/09/03 08:45:31;;;;;;;10.60;7.50;;;;;;;21.34;56.57;99704.28;5115545;28;20416;-74
2021/09/03 08:48:00;;;;;;;7.83;7.03;;;;;;;21.44;56.21;99695.00;5115032;28;20429;-73
2021/09/03 08:50:27;;;;;;;8.00;7.20;;;;;;;21.68;56.57;99695.38;5114710;28;20448;-74
2021/09/03 08:52:54;;;;;;;11.10;8.40;;;;;;;21.82;56.26;99701.16;5115049;28;20490;-73
2021/09/03 08:55:21;;;;;;;10.80;9.10;;;;;;;21.86;55.83;99701.69;5114750;28;21053;-73
2021/09/03 08:57:48;;;;;;;12.03;8.43;;;;;;;22.02;55.07;99700.94;5114382;28;20465;-73
2021/09/03 09:00:21;;;;;;;8.87;7.97;;;;;;;22.08;54.40;99695.69;5114332;28;20513;-72
2021/09/03 09:03:01;;;;;;;8.93;8.03;;;;;;;22.27;53.37;99705.63;5114297;28;20826;-73
2021/09/03 09:05:46;;;;;;;8.93;7.67;;;;;;;22.18;53.71;99692.84;5094576;28;20418;-73
2021/09/03 09:08:13;;;;;;;10.23;8.70;;;;;;;22.34;53.62;99700.34;5094448;28;20932;-72
2021/09/03 09:10:50;;;;;;;9.43;7.57;;;;;;;22.27;53.44;99700.13;5093947;28;20483;-74
2021/09/03 09:13:17;;;;;;;7.57;6.70;;;;;;;22.53;53.15;99704.72;5094580;28;20898;-73
2021/09/03 09:15:58;;;;;;;9.40;7.10;;;;;;;22.54;53.23;99706.44;5093806;28;20569;-74
2021/09/03 09:18:34;;;;;;;8.20;7.40;;;;;;;22.42;52.49;99707.75;5095451;28;20428;-72
2021/09/03 09:21:12;;;;;;;8.13;7.30;;;;;;;22.41;52.71;99714.25;5114829;28;20901;-73
2021/09/03 09:23:44;;;;;;;9.10;7.37;;;;;;;22.55;53.21;99712.81;5114700;28;20539;-73
2021/09/03 09:26:11;;;;;;;8.83;7.93;;;;;;;22.88;51.81;99711.03;5113848;28;20503;-73
2021/09/03 09:28:38;;;;;;;9.17;8.27;;;;;;;23.04;51.29;99708.41;5114153;28;20443;-73
2021/09/03 09:31:04;;;;;;;8.63;7.63;;;;;;;23.25;51.14;99704.34;5114375;28;20933;-73
2021/09/03 09:33:33;;;;;;;10.97;7.90;;;;;;;23.37;51.22;99702.97;5114009;28;20449;-73
2021/09/03 09:36:01;;;;;;;8.57;7.00;;;;;;;23.34;50.28;99705.19;5114042;28;20500;-72
2021/09/03 09:38:30;;;;;;;7.83;7.03;;;;;;;23.41;50.36;99703.50;5113967;28;20894;-73
2021/09/03 09:40:59;;;;;;;9.17;7.30;;;;;;;23.46;50.70;99699.22;5114130;28;20430;-73
2021/09/03 09:43:27;;;;;;;9.20;8.00;;;;;;;23.63;50.15;99697.34;5113402;28;20429;-73
2021/09/03 09:46:13;;;;;;;10.17;8.03;;;;;;;23.69;49.67;99698.53;5114276;28;20907;-72
2021/09/03 09:48:57;;;;;;;11.17;8.33;;;;;;;23.78;50.01;99689.28;5114927;28;20434;-72
2021/09/03 09:51:26;;;;;;;8.23;7.23;;;;;;;23.72;49.60;99695.44;5113871;28;20447;-72
2021/09/03 09:53:54;;;;;;;9.03;7.03;;;;;;;23.75;49.00;99699.81;5114136;28;20433;-73
2021/09/03 09:56:21;;;;;;;9.27;7.13;;;;;;;23.78;49.28;99689.28;5113484;28;20901;-74
2021/09/03 09:58:50;;;;;;;8.83;6.90;;;;;;;23.84;49.32;99687.75;5114245;28;20841;-74
2021/09/03 10:01:18;;;;;;;8.80;7.50;;;;;;;23.93;49.49;99676.56;5112774;28;20525;-73
2021/09/03 10:03:47;;;;;;;10.10;6.63;;;;;;;23.97;48.69;99687.22;5113099;28;20524;-72
2021/09/03 10:06:16;;;;;;;10.03;7.87;;;;;;;24.14;49.14;99677.91;5113692;28;21044;-73
2021/09/03 10:08:45;;;;;;;7.60;6.80;;;;;;;24.02;49.25;99685.69;5113506;28;20432;-74
2021/09/03 10:11:12;;;;;;;7.23;6.47;;;;;;;23.89;49.20;99679.84;5113840;28;20747;-72
2021/09/03 10:13:39;;;;;;;8.77;7.10;;;;;;;24.02;48.65;99674.69;5113735;28;20451;-73
2021/09/03 10:16:06;;;;;;;8.40;7.00;;;;;;;24.22;48.09;99669.66;5113429;28;20496;-73
2021/09/03 10:18:34;;;;;;;7.67;6.70;;;;;;;24.01;48.84;99672.09;5112892;28;20968;-73
2021/09/03 10:21:01;;;;;;;8.57;7.67;;;;;;;24.16;48.55;99684.09;5113158;28;20417;-74
2021/09/03 10:23:52;;;;;;;9.80;8.40;;;;;;;24.38;47.69;99677.00;5113110;28;20455;-72
2021/09/03 10:26:23;;;;;;;12.27;8.90;;;;;;;24.42;47.98;99672.88;5113423;28;20959;-73
2021/09/03 10:28:50;;;;;;;8.23;6.83;;;;;;;24.38;47.89;99674.25;5112878;28;20925;-72
2021/09/03 10:31:19;;;;;;;8.83;6.70;;;;;;;24.45;47.02;99663.41;5108234;28;20439;-73
2021/09/03 10:33:47;;;;;;;7.50;6.70;;;;;;;24.28;46.72;99663.44;5112320;28;20444;-73
2021/09/03 10:36:14;;;;;;;7.40;6.63;;;;;;;24.38;46.78;99656.88;5107481;28;20465;-73
2021/09/03 10:38:44;;;;;;;7.43;6.73;;;;;;;24.54;45.84;99663.22;5111616;28;20542;-73
2021/09/03 10:41:48;;;;;;;8.00;7.07;;;;;;;24.42;46.57;99656.38;5111811;28;20468;-73
2021/09/03 10:44:15;;;;;;;7.00;6.30;;;;;;;24.66;46.66;99654.56;5111321;28;20429;-73
2021/09/03 10:46:43;;;;;;;7.47;6.00;;;;;;;24.70;46.08;99650.44;5112769;28;20809;-74
2021/09/03 10:49:10;;;;;;;7.37;6.53;;;;;;;24.74;45.26;99649.88;5112450;28;20428;-73
2021/09/03 10:51:39;;;;;;;10.73;9.83;;;;;;;24.81;45.14;99654.69;5111033;28;20443;-74
2021/09/03 10:54:15;;;;;;;7.87;6.47;;;;;;;24.61;45.82;99655.09;5111601;28;20440;-74
2021/09/03 10:56:54;;;;;;;6.63;5.90;;;;;;;24.63;46.20;99650.28;5112579;28;20462;-74
2021/09/03 10:59:21;;;;;;;8.57;7.77;;;;;;;24.73;46.03;99653.66;5111836;28;20420;-74
2021/09/03 11:01:57;;;;;;;6.50;5.90;;;;;;;24.72;46.39;99643.72;5111655;28;20480;-73
2021/09/03 11:04:25;;;;;;;10.50;7.90;;;;;;;24.73;46.50;99639.91;5112089;28;20537;-73
2021/09/03 11:07:08;;;;;;;8.50;7.07;;;;;;;24.63;46.70;99642.03;5112698;28;20418;-73
2021/09/03 11:09:36;;;;;;;7.90;6.73;;;;;;;24.97;45.41;99647.19;5112283;28;20884;-73
2021/09/03 11:12:09;;;;;;;10.00;8.37;;;;;;;25.06;44.21;99642.47;5112174;28;20430;-73
2021/09/03 11:14:36;;;;;;;9.47;6.77;;;;;;;24.92;44.57;99641.38;5112709;28;20773;-73
2021/09/03 11:17:04;;;;;;;7.23;6.53;;;;;;;25.11;44.55;99640.03;5111490;28;20498;-74
2021/09/03 11:19:33;;;;;;;7.37;6.67;;;;;;;25.04;44.19;99635.44;5112699;28;20963;-74
2021/09/03 11:22:03;;;;;;;6.87;6.27;;;;;;;24.94;44.24;99632.91;5112409;28;20487;-74
2021/09/03 11:24:32;;;;;;;8.13;7.33;;;;;;;24.76;44.39;99625.78;5112509;28;20441;-71